Time;durP1;ratioP1;P1;durP2;ratioP2;P2;SDS_P1;SDS_P2;PMS_P1;PMS_P2;Temp;Humidity;BMP_temperature;BMP_pressure;BME280_temperature;BME280_humidity;BME280_pressure;Samples;Min_cycle;Max_cycle;Signal;HPM_P1;HPM_P2
2023/03/29 14:11:33;;;;;;;4.18;2.60;;;22.40;99.90;;;;;;5145026;27;20439;-79
2023/03/29 14:14:04;;;;;;;3.08;2.42;;;22.40;99.90;;;;;;5129801;28;20253;-84
2023/03/29 14:16:34;;;;;;;7.50;2.35;;;22.30;99.90;;;;;;5128713;27;20371;-84
2023/03/29 14:19:04;;;;;;;3.65;2.00;;;22.20;99.90;;;;;;5126805;27;20238;-84
2023/03/29 14:21:31;;;;;;;3.10;2.28;;;22.20;99.90;;;;;;5128678;28;20248;-84
2023/03/29 14:24:01;;;;;;;7.60;2.45;;;22.60;99.90;;;;;;5134007;27;20234;-81
2023/03/29 14:26:34;;;;;;;6.13;3.42;;;22.40;99.90;;;;;;5146698;27;20196;-81
2023/03/29 14:29:03;;;;;;;3.58;2.65;;;22.30;99.90;;;;;;5139868;27;20215;-85
2023/03/29 14:31:32;;;;;;;3.00;2.17;;;22.60;99.90;;;;;;5149686;27;20215;-82
2023/03/29 14:34:01;;;;;;;7.72;2.85;;;22.80;99.90;;;;;;5149118;27;20548;-80
2023/03/29 14:36:30;;;;;;;4.82;2.53;;;22.70;99.90;;;;;;5149195;27;20269;-82
2023/03/29 14:39:01;;;;;;;3.83;1.98;;;22.60;99.90;;;;;;5148872;27;20758;-79
2023/03/29 14:41:30;;;;;;;6.38;2.58;;;22.30;99.90;;;;;;5147177;27;20243;-84
2023/03/29 14:43:58;;;;;;;4.30;2.55;;;22.40;99.90;;;;;;5128579;27;20208;-85
2023/03/29 14:46:27;;;;;;;3.75;2.35;;;22.50;99.90;;;;;;5128389;28;20250;-85
2023/03/29 14:48:55;;;;;;;5.28;3.53;;;22.40;99.90;;;;;;5128031;28;20239;-81
2023/03/29 14:51:26;;;;;;;5.68;2.97;;;22.60;99.90;;;;;;5128301;28;20232;-83
2023/03/29 14:53:53;;;;;;;3.45;1.65;;;22.40;99.90;;;;;;5127143;28;20253;-86
2023/03/29 14:56:24;;;;;;;5.25;2.58;;;22.40;99.90;;;;;;5128084;28;20232;-82
2023/03/29 14:58:54;;;;;;;3.33;2.22;;;22.20;99.90;;;;;;5128709;28;20196;-81
2023/03/29 15:01:23;;;;;;;3.95;2.22;;;22.30;99.90;;;;;;5128010;28;20228;-79
2023/03/29 15:03:55;;;;;;;7.00;2.80;;;22.00;99.90;;;;;;5127894;28;20201;-83
2023/03/29 15:06:23;;;;;;;5.03;2.65;;;21.90;99.90;;;;;;5127134;28;20201;-82
2023/03/29 15:08:50;;;;;;;6.18;2.28;;;21.90;99.90;;;;;;5128245;28;20667;-81
2023/03/29 15:11:20;;;;;;;3.38;2.20;;;21.80;99.90;;;;;;5127603;28;20258;-85
2023/03/29 15:13:49;;;;;;;9.10;2.30;;;21.70;99.90;;;;;;5128308;28;20203;-81
2023/03/29 15:16:19;;;;;;;6.05;2.40;;;21.60;99.90;;;;;;5128366;28;20615;-80
2023/03/29 15:18:49;;;;;;;7.03;2.53;;;21.50;99.90;;;;;;5128246;28;20667;-82
2023/03/29 15:21:21;;;;;;;6.80;2.20;;;21.50;99.90;;;;;;5122235;28;20682;-88
2023/03/29 15:23:52;;;;;;;10.65;2.50;;;21.50;99.90;;;;;;5113314;28;20265;-80
2023/03/29 15:26:23;;;;;;;4.68;2.33;;;21.50;99.90;;;;;;5113724;28;20236;-78
2023/03/29 15:28:54;;;;;;;7.38;2.63;;;21.60;99.90;;;;;;5114194;28;20212;-85
2023/03/29 15:31:26;;;;;;;7.68;3.60;;;21.30;99.90;;;;;;5113433;28;20644;-82
2023/03/29 15:34:02;;;;;;;5.80;3.17;;;21.30;99.90;;;;;;5113794;28;20205;-81
2023/03/29 15:36:31;;;;;;;7.78;2.85;;;21.20;99.90;;;;;;5113506;28;20287;-80
2023/03/29 15:38:59;;;;;;;9.63;3.47;;;21.30;99.90;;;;;;5113612;28;20223;-82
2023/03/29 15:41:27;;;;;;;3.08;2.03;;;21.50;99.90;;;;;;5095313;28;20670;-84
2023/03/29 15:43:54;;;;;;;5.10;2.70;;;21.60;99.90;;;;;;5112832;28;20675;-85
2023/03/29 15:46:21;;;;;;;7.93;2.88;;;21.80;99.90;;;;;;5111114;28;20236;-78
2023/03/29 15:48:48;;;;;;;4.53;2.45;;;22.00;99.90;;;;;;5115374;28;20211;-81
2023/03/29 15:51:15;;;;;;;3.88;3.25;;;22.10;99.90;;;;;;5113919;28;20228;-83
2023/03/29 15:53:43;;;;;;;3.97;1.92;;;21.80;99.90;;;;;;5112992;28;20211;-82
2023/03/29 15:56:17;;;;;;;4.97;2.40;;;21.80;99.90;;;;;;5113353;28;20228;-82
2023/03/29 15:58:44;;;;;;;3.92;2.20;;;21.80;99.90;;;;;;5111887;28;20205;-84
2023/03/29 16:01:32;;;;;;;9.30;3.40;;;21.80;99.90;;;;;;5113306;28;20293;-78
2023/03/29 16:03:59;;;;;;;3.92;2.30;;;21.70;99.90;;;;;;5113889;28;20209;-82
2023/03/29 16:06:26;;;;;;;4.45;2.45;;;21.70;99.90;;;;;;5113599;28;20201;-83
2023/03/29 16:08:55;;;;;;;3.40;2.08;;;21.60;99.90;;;;;;5113510;28;20628;-81
2023/03/29 16:11:22;;;;;;;8.10;2.20;;;21.40;99.90;;;;;;5112888;28;20259;-86
2023/03/29 16:13:49;;;;;;;7.47;3.42;;;21.50;99.90;;;;;;5113853;28;20201;-83
2023/03/29 16:16:16;;;;;;;9.23;2.50;;;21.40;99.90;;;;;;5113047;28;20266;-83
2023/03/29 16:18:43;;;;;;;6.03;1.60;;;21.30;99.90;;;;;;5113873;28;20240;-80
2023/03/29 16:21:13;;;;;;;4.40;3.08;;;21.10;99.90;;;;;;5113641;28;20228;-82
2023/03/29 16:23:41;;;;;;;7.97;2.53;;;21.10;99.90;;;;;;5113267;28;20646;-86
2023/03/29 16:26:12;;;;;;;5.53;3.25;;;21.10;99.90;;;;;;5113600;28;20204;-80
2023/03/29 16:28:38;;;;;;;5.18;2.88;;;21.00;99.90;;;;;;5113494;28;20265;-83
2023/03/29 16:31:06;;;;;;;5.60;2.13;;;21.00;99.90;;;;;;5113396;28;20282;-85
2023/03/29 16:33:33;;;;;;;5.43;2.55;;;21.00;99.90;;;;;;5111950;28;20295;-83
2023/03/29 16:35:59;;;;;;;5.20;3.00;;;20.90;99.90;;;;;;5113122;28;20254;-80
2023/03/29 16:38:28;;;;;;;2.83;2.30;;;20.70;99.90;;;;;;5112374;28;20262;-86
2023/03/29 16:40:55;;;;;;;3.45;2.20;;;20.50;99.90;;;;;;5113069;28;20223;-84
2023/03/29 16:43:24;;;;;;;6.43;3.65;;;20.40;99.90;;;;;;5112594;28;20205;-85
2023/03/29 16:45:51;;;;;;;3.75;2.65;;;20.50;99.90;;;;;;5113119;28;20228;-81
2023/03/29 16:48:19;;;;;;;7.97;2.63;;;20.50;99.90;;;;;;5112552;28;20201;-83
2023/03/29 16:50:48;;;;;;;5.60;2.78;;;20.50;99.90;;;;;;5114517;28;20282;-80
2023/03/29 16:53:15;;;;;;;5.90;2.63;;;20.50;99.90;;;;;;5112785;28;20205;-86
2023/03/29 16:55:42;;;;;;;8.23;2.67;;;20.30;99.90;;;;;;5112622;28;20197;-84
2023/03/29 16:58:09;;;;;;;5.60;3.88;;;20.10;99.90;;;;;;5112299;28;20568;-80
2023/03/29 17:00:37;;;;;;;6.00;2.58;;;20.00;99.90;;;;;;5113041;28;20269;-78
2023/03/29 17:03:05;;;;;;;3.85;2.60;;;19.80;99.90;;;;;;5112940;28;20212;-81
2023/03/29 17:05:38;;;;;;;4.82;2.58;;;19.70;99.90;;;;;;5111973;28;20564;-80
2023/03/29 17:08:06;;;;;;;5.03;2.88;;;19.60;99.90;;;;;;5112615;28;20205;-84
2023/03/29 17:10:32;;;;;;;6.95;2.50;;;19.60;99.90;;;;;;5111989;28;20229;-87
2023/03/29 17:12:59;;;;;;;6.43;3.00;;;19.50;99.90;;;;;;5112675;28;20235;-84
2023/03/29 17:15:26;;;;;;;4.63;2.88;;;19.50;99.90;;;;;;5112566;28;20232;-90
2023/03/29 17:17:55;;;;;;;7.22;3.38;;;19.40;99.90;;;;;;5112741;28;20228;-85
2023/03/29 17:20:21;;;;;;;7.35;3.25;;;19.30;99.90;;;;;;5112344;28;20714;-86
2023/03/29 17:22:50;;;;;;;3.75;2.17;;;19.20;99.90;;;;;;5116573;28;20246;-83
2023/03/29 17:25:18;;;;;;;7.60;3.10;;;19.00;99.90;;;;;;5112027;28;20283;-85
2023/03/29 17:27:46;;;;;;;5.57;2.92;;;18.90;99.90;;;;;;5112316;28;20201;-87
2023/03/29 17:30:14;;;;;;;4.07;3.22;;;18.90;99.90;;;;;;5111576;28;20201;-78
2023/03/29 17:32:41;;;;;;;6.80;2.78;;;18.80;99.90;;;;;;5111868;28;20201;-78
2023/03/29 17:35:11;;;;;;;5.35;2.33;;;18.80;99.90;;;;;;5111851;28;20197;-78
2023/03/29 17:37:38;;;;;;;3.63;2.63;;;18.70;99.90;;;;;;5111453;28;20201;-78
2023/03/29 17:40:10;;;;;;;6.70;2.92;;;18.60;99.90;;;;;;5112486;28;20747;-84
2023/03/29 17:42:37;;;;;;;4.30;3.50;;;18.50;99.90;;;;;;5112253;28;20270;-88
2023/03/29 17:45:04;;;;;;;8.05;3.67;;;18.30;99.90;;;;;;5111750;28;20228;-83
2023/03/29 17:47:31;;;;;;;3.72;2.15;;;18.20;99.90;;;;;;5111486;28;20207;-88
2023/03/29 17:49:58;;;;;;;5.72;2.90;;;18.10;99.90;;;;;;5111834;28;20273;-87
2023/03/29 17:52:27;;;;;;;7.85;3.53;;;18.10;99.90;;;;;;5113624;28;20285;-87
2023/03/29 17:54:54;;;;;;;4.68;2.95;;;18.00;99.90;;;;;;5114399;28;20232;-77
2023/03/29 17:57:21;;;;;;;7.45;4.00;;;17.90;99.90;;;;;;5111310;28;20201;-87
2023/03/29 17:59:48;;;;;;;4.28;3.20;;;17.80;99.90;;;;;;5112033;28;20201;-84
2023/03/29 18:02:18;;;;;;;5.57;3.55;;;17.80;99.90;;;;;;5111328;28;20248;-87
2023/03/29 18:04:45;;;;;;;5.07;4.07;;;17.70;99.90;;;;;;5111696;28;20228;-83
2023/03/29 18:07:12;;;;;;;7.18;3.78;;;17.50;99.90;;;;;;5111749;28;20280;-85
2023/03/29 18:09:40;;;;;;;7.47;2.95;;;17.50;99.90;;;;;;5111457;28;20252;-84
2023/03/29 18:12:08;;;;;;;7.55;3.83;;;17.40;99.90;;;;;;5112140;28;20324;-84
2023/03/29 18:14:35;;;;;;;5.38;4.20;;;17.30;99.90;;;;;;5111618;28;20620;-83
2023/03/29 18:17:02;;;;;;;7.28;4.13;;;17.30;99.90;;;;;;5111797;28;20651;-80
2023/03/29 18:19:29;;;;;;;5.07;3.42;;;17.20;99.90;;;;;;5111016;28;20404;-86
2023/03/29 18:21:56;;;;;;;10.45;4.13;;;17.00;99.90;;;;;;5111771;28;20200;-85
2023/03/29 18:24:23;;;;;;;8.77;4.15;;;16.90;99.90;;;;;;5112971;28;20824;-83
2023/03/29 18:26:51;;;;;;;4.75;3.33;;;16.90;99.90;;;;;;5112706;28;20232;-81
2023/03/29 18:29:18;;;;;;;9.20;4.93;;;16.80;99.90;;;;;;5111266;28;20232;-84
2023/03/29 18:31:45;;;;;;;8.20;3.22;;;16.80;99.90;;;;;;5111215;28;20316;-88
2023/03/29 18:34:12;;;;;;;4.93;3.45;;;16.60;99.90;;;;;;5110622;28;20233;-81
2023/03/29 18:36:39;;;;;;;8.13;4.03;;;16.60;99.90;;;;;;5111160;28;20204;-79
2023/03/29 18:39:06;;;;;;;7.13;3.25;;;16.60;99.90;;;;;;5111673;28;20232;-82
2023/03/29 18:41:36;;;;;;;8.25;4.10;;;16.50;99.90;;;;;;5110829;28;20221;-83
2023/03/29 18:44:06;;;;;;;6.72;3.63;;;16.40;99.90;;;;;;5111315;28;20200;-81
2023/03/29 18:46:33;;;;;;;11.85;5.35;;;16.40;99.90;;;;;;5110538;28;20214;-81
2023/03/29 18:49:01;;;;;;;7.65;3.70;;;16.30;99.90;;;;;;5111066;28;20207;-78
2023/03/29 18:51:28;;;;;;;7.50;3.90;;;16.30;99.90;;;;;;5110648;28;20236;-85
2023/03/29 18:53:55;;;;;;;6.25;3.67;;;16.20;99.90;;;;;;5111168;28;20209;-83
2023/03/29 18:56:23;;;;;;;7.22;3.90;;;16.20;99.90;;;;;;5111513;28;20234;-81
2023/03/29 18:58:50;;;;;;;9.65;4.30;;;16.20;99.90;;;;;;5114513;28;20201;-78
2023/03/29 19:01:18;;;;;;;3.95;3.03;;;16.20;99.90;;;;;;5114798;28;20232;-84
2023/03/29 19:03:45;;;;;;;5.78;4.07;;;16.10;99.90;;;;;;5114849;28;20236;-83
2023/03/29 19:06:13;;;;;;;5.68;3.42;;;16.00;99.90;;;;;;5114243;28;20211;-81
2023/03/29 19:08:40;;;;;;;7.00;4.53;;;16.00;99.90;;;;;;5114718;28;20250;-79
2023/03/29 19:11:09;;;;;;;9.48;5.90;;;16.00;99.90;;;;;;5114799;28;20268;-78
2023/03/29 19:13:36;;;;;;;8.82;4.30;;;16.00;99.90;;;;;;5114745;28;20698;-79
2023/03/29 19:16:03;;;;;;;8.00;3.92;;;15.90;99.90;;;;;;5114962;28;20232;-84
2023/03/29 19:18:32;;;;;;;5.53;3.85;;;15.80;99.90;;;;;;5114122;28;20637;-81
2023/03/29 19:20:59;;;;;;;7.18;3.95;;;15.80;99.90;;;;;;5114386;28;20213;-82
2023/03/29 19:23:27;;;;;;;9.02;5.05;;;15.80;99.90;;;;;;5113929;28;20625;-79
2023/03/29 19:25:54;;;;;;;7.03;3.92;;;15.80;99.90;;;;;;5114924;28;20205;-84
2023/03/29 19:28:21;;;;;;;4.97;4.13;;;15.70;99.90;;;;;;5114345;28;20236;-83
2023/03/29 19:30:48;;;;;;;11.23;5.00;;;15.70;99.90;;;;;;5114479;28;20254;-84
2023/03/29 19:33:15;;;;;;;10.60;4.95;;;15.60;99.90;;;;;;5113346;28;20241;-79
2023/03/29 19:35:44;;;;;;;7.82;3.63;;;15.60;99.90;;;;;;5114172;28;20258;-83
2023/03/29 19:38:11;;;;;;;9.40;4.78;;;15.60;99.90;;;;;;5113732;28;20233;-77
2023/03/29 19:40:38;;;;;;;12.82;6.05;;;15.50;99.90;;;;;;5114290;28;20274;-75
2023/03/29 19:43:05;;;;;;;9.70;5.13;;;15.50;99.90;;;;;;5114775;28;20232;-88
2023/03/29 19:45:32;;;;;;;6.03;5.35;;;15.50;99.90;;;;;;5113868;28;20237;-78
2023/03/29 19:47:59;;;;;;;9.25;4.43;;;15.40;99.90;;;;;;5112200;28;20684;-79
2023/03/29 19:50:26;;;;;;;8.43;5.15;;;15.30;99.90;;;;;;5113618;28;20237;-83
2023/03/29 19:52:55;;;;;;;7.32;4.32;;;15.30;99.90;;;;;;5113628;28;20231;-83
2023/03/29 19:55:23;;;;;;;5.30;4.72;;;15.20;99.90;;;;;;5113547;28;20300;-82
2023/03/29 19:57:50;;;;;;;8.77;4.82;;;15.30;99.90;;;;;;5114234;28;20688;-82
2023/03/29 20:00:23;;;;;;;4.35;3.85;;;15.20;99.90;;;;;;5113508;28;20236;-80
2023/03/29 20:02:49;;;;;;;8.07;4.57;;;15.20;99.90;;;;;;5113347;28;20295;-82
2023/03/29 20:05:17;;;;;;;11.05;4.68;;;15.20;99.90;;;;;;5113193;28;20641;-84
2023/03/29 20:07:44;;;;;;;9.13;5.30;;;15.10;99.90;;;;;;5113289;28;20250;-77
2023/03/29 20:10:13;;;;;;;10.38;4.25;;;15.10;99.90;;;;;;5112925;28;20263;-80
2023/03/29 20:12:40;;;;;;;12.85;4.25;;;15.10;99.90;;;;;;5113330;28;20297;-78
2023/03/29 20:15:08;;;;;;;8.63;5.47;;;15.00;99.90;;;;;;5113890;28;20239;-82
2023/03/29 20:17:39;;;;;;;5.95;4.15;;;15.00;99.90;;;;;;5113450;28;20208;-84
2023/03/29 20:20:08;;;;;;;13.13;4.13;;;15.00;99.90;;;;;;5113562;28;20204;-81
2023/03/29 20:22:36;;;;;;;6.65;3.80;;;15.00;99.90;;;;;;5113423;28;20243;-82
2023/03/29 20:25:04;;;;;;;9.23;4.80;;;14.90;99.90;;;;;;5113818;28;20201;-83
2023/03/29 20:27:32;;;;;;;6.53;4.82;;;14.90;99.90;;;;;;5113365;28;20330;-83
2023/03/29 20:29:59;;;;;;;6.15;4.45;;;14.80;99.90;;;;;;5111124;28;20254;-82
2023/03/29 20:32:26;;;;;;;9.88;4.32;;;14.90;99.90;;;;;;5112413;28;20288;-81
2023/03/29 20:34:53;;;;;;;7.70;4.30;;;14.90;99.90;;;;;;5112532;28;20240;-85
2023/03/29 20:37:21;;;;;;;9.98;5.50;;;14.80;99.90;;;;;;5111185;28;20237;-80
2023/03/29 20:39:49;;;;;;;9.25;5.03;;;14.80;99.90;;;;;;5111064;28;20204;-82
2023/03/29 20:42:16;;;;;;;8.18;5.28;;;14.70;99.90;;;;;;5111946;28;20203;-81
2023/03/29 20:44:49;;;;;;;9.20;4.50;;;14.70;99.90;;;;;;5118509;27;20236;-81
2023/03/29 20:47:16;;;;;;;9.63;5.43;;;14.60;99.90;;;;;;5112032;28;20687;-81
2023/03/29 20:49:43;;;;;;;7.22;5.00;;;14.60;99.90;;;;;;5112817;28;20228;-80
2023/03/29 20:52:14;;;;;;;10.77;6.05;;;14.50;99.90;;;;;;5112540;28;20318;-74
2023/03/29 20:54:41;;;;;;;12.98;5.07;;;14.60;99.90;;;;;;5112663;28;20200;-79
2023/03/29 20:57:10;;;;;;;9.15;4.75;;;14.60;99.90;;;;;;5132164;27;20235;-76
2023/03/29 20:59:37;;;;;;;9.85;5.43;;;14.50;99.90;;;;;;5133924;27;20238;-82
2023/03/29 21:02:07;;;;;;;13.90;5.53;;;14.40;99.90;;;;;;5125741;27;20244;-77
2023/03/29 21:04:34;;;;;;;9.32;4.82;;;14.40;99.90;;;;;;5112221;28;20292;-78
2023/03/29 21:07:03;;;;;;;16.77;5.80;;;14.40;99.90;;;;;;5112179;28;20209;-80
2023/03/29 21:09:33;;;;;;;12.45;6.43;;;14.40;99.90;;;;;;5111779;28;20212;-77
2023/03/29 21:12:00;;;;;;;7.90;4.43;;;14.30;99.90;;;;;;5111293;28;20267;-81
2023/03/29 21:14:29;;;;;;;10.25;5.88;;;14.30;99.90;;;;;;5110664;28;20232;-83
2023/03/29 21:16:56;;;;;;;12.82;5.35;;;14.30;99.90;;;;;;5112026;28;20211;-80
2023/03/29 21:19:24;;;;;;;6.75;5.72;;;14.20;99.90;;;;;;5111314;28;20208;-77
2023/03/29 21:21:51;;;;;;;14.18;5.63;;;14.30;99.90;;;;;;5112097;28;20239;-80
2023/03/29 21:24:19;;;;;;;12.90;5.07;;;14.20;99.90;;;;;;5111251;28;20203;-81
2023/03/29 21:26:46;;;;;;;7.97;5.38;;;14.20;99.90;;;;;;5111822;28;20250;-81
2023/03/29 21:29:13;;;;;;;9.15;5.00;;;14.20;99.90;;;;;;5111531;28;20288;-79
2023/03/29 21:31:40;;;;;;;8.90;5.10;;;14.20;99.90;;;;;;5112436;28;20268;-83
2023/03/29 21:34:07;;;;;;;7.82;5.95;;;14.20;99.90;;;;;;5112252;28;20203;-80
2023/03/29 21:36:36;;;;;;;7.25;5.75;;;14.10;99.90;;;;;;5111891;28;20214;-77
2023/03/29 21:39:03;;;;;;;10.55;5.75;;;14.10;99.90;;;;;;5111773;28;20240;-79
2023/03/29 21:41:29;;;;;;;10.52;5.43;;;14.00;99.90;;;;;;5111129;28;20200;-74
2023/03/29 21:43:56;;;;;;;9.52;5.82;;;14.00;99.90;;;;;;5111659;28;20241;-79
2023/03/29 21:46:24;;;;;;;12.93;5.97;;;13.90;99.90;;;;;;5111116;28;20205;-78
2023/03/29 21:48:51;;;;;;;11.98;5.68;;;13.90;99.90;;;;;;5111578;28;20223;-75
2023/03/29 21:51:18;;;;;;;10.00;5.53;;;13.90;99.90;;;;;;5111182;28;20201;-74
2023/03/29 21:53:47;;;;;;;10.57;5.85;;;14.00;99.90;;;;;;5111487;28;20673;-75
2023/03/29 21:56:14;;;;;;;9.82;6.22;;;13.90;99.90;;;;;;5111115;28;20239;-75
2023/03/29 21:58:41;;;;;;;12.75;6.78;;;13.80;99.90;;;;;;5111139;28;20684;-76
2023/03/29 22:01:09;;;;;;;9.48;5.43;;;13.80;99.90;;;;;;5111409;28;20680;-74
2023/03/29 22:03:36;;;;;;;8.88;6.22;;;13.70;99.90;;;;;;5111768;28;20262;-76
2023/03/29 22:06:06;;;;;;;9.00;7.50;;;13.60;99.90;;;;;;5111572;28;20668;-75
2023/03/29 22:08:37;;;;;;;11.93;6.05;;;13.50;99.90;;;;;;5111345;28;20213;-75
2023/03/29 22:11:07;;;;;;;12.50;5.80;;;13.50;99.90;;;;;;5111299;28;20216;-75
2023/03/29 22:13:34;;;;;;;17.10;7.68;;;13.40;99.90;;;;;;5111138;28;20255;-79
2023/03/29 22:16:03;;;;;;;11.40;6.32;;;13.40;99.90;;;;;;5111409;28;20232;-78
2023/03/29 22:18:40;;;;;;;8.07;6.82;;;13.30;99.90;;;;;;5110996;28;20587;-78
2023/03/29 22:21:08;;;;;;;14.18;7.18;;;13.20;99.90;;;;;;5111515;28;20704;-80
2023/03/29 22:23:35;;;;;;;14.27;6.43;;;13.20;99.90;;;;;;5111362;28;20215;-80
2023/03/29 22:26:06;;;;;;;13.82;6.43;;;13.20;99.90;;;;;;5111138;28;20197;-76
2023/03/29 22:28:35;;;;;;;10.75;7.95;;;13.10;99.90;;;;;;5111144;28;20242;-75
2023/03/29 22:31:03;;;;;;;14.70;6.88;;;13.10;99.90;;;;;;5111395;28;20204;-82
2023/03/29 22:33:31;;;;;;;12.18;7.38;;;13.00;99.90;;;;;;5114700;28;20232;-80
2023/03/29 22:35:58;;;;;;;11.85;7.03;;;13.00;99.90;;;;;;5115419;28;20250;-80
2023/03/29 22:38:25;;;;;;;15.32;7.65;;;13.00;99.90;;;;;;5115047;28;20232;-78
2023/03/29 22:40:52;;;;;;;11.98;7.28;;;12.90;99.90;;;;;;5115198;28;20200;-78
2023/03/29 22:43:20;;;;;;;13.10;7.07;;;12.90;99.90;;;;;;5114855;28;20235;-77
2023/03/29 22:45:47;;;;;;;12.75;7.45;;;12.80;99.90;;;;;;5115073;28;20200;-77
2023/03/29 22:48:14;;;;;;;8.60;7.15;;;12.70;99.90;;;;;;5114557;28;20644;-76
2023/03/29 22:50:42;;;;;;;14.20;7.57;;;12.70;99.90;;;;;;5114837;28;20737;-75
2023/03/29 22:53:10;;;;;;;11.65;6.40;;;12.70;99.90;;;;;;5114739;28;20712;-76
2023/03/29 22:55:37;;;;;;;16.17;7.22;;;12.70;99.90;;;;;;5115079;28;20200;-77
2023/03/29 22:58:04;;;;;;;17.92;8.25;;;12.60;99.90;;;;;;5114945;28;20240;-76
2023/03/29 23:00:33;;;;;;;13.90;8.85;;;12.60;99.90;;;;;;5114280;28;20238;-78
2023/03/29 23:03:00;;;;;;;12.43;7.53;;;12.60;99.90;;;;;;5114898;28;20200;-76
2023/03/29 23:05:26;;;;;;;10.60;7.43;;;12.60;99.90;;;;;;5114578;28;20290;-82
2023/03/29 23:07:54;;;;;;;12.23;8.48;;;12.50;99.90;;;;;;5114691;28;20244;-79
2023/03/29 23:10:27;;;;;;;12.13;7.72;;;12.50;99.90;;;;;;5113663;28;20213;-79
2023/03/29 23:13:04;;;;;;;11.93;9.30;;;12.50;99.90;;;;;;5114529;28;20240;-78
2023/03/29 23:15:32;;;;;;;13.75;7.70;;;12.50;99.90;;;;;;5113866;28;20206;-76
2023/03/29 23:18:00;;;;;;;12.30;7.75;;;12.50;99.90;;;;;;5114425;28;20683;-76
2023/03/29 23:20:27;;;;;;;11.38;8.20;;;12.40;99.90;;;;;;5114179;28;20201;-80
2023/03/29 23:22:54;;;;;;;12.73;6.97;;;12.40;99.90;;;;;;5114429;28;20295;-76
2023/03/29 23:25:23;;;;;;;12.63;7.60;;;12.40;99.90;;;;;;5113600;28;20660;-77
2023/03/29 23:27:51;;;;;;;11.25;6.70;;;12.40;99.90;;;;;;5114206;28;20241;-75
2023/03/29 23:30:18;;;;;;;14.35;7.30;;;12.30;99.90;;;;;;5113776;28;20746;-74
2023/03/29 23:32:46;;;;;;;12.00;7.65;;;12.30;99.90;;;;;;5114275;28;20721;-76
2023/03/29 23:35:14;;;;;;;14.98;7.72;;;12.30;99.90;;;;;;5113815;28;20228;-75
2023/03/29 23:37:41;;;;;;;14.45;7.20;;;12.20;99.90;;;;;;5114212;28;20573;-79
2023/03/29 23:40:10;;;;;;;8.38;7.30;;;12.30;99.90;;;;;;5113904;28;20236;-74
2023/03/29 23:42:38;;;;;;;12.82;7.80;;;12.20;99.90;;;;;;5113915;28;20205;-75
2023/03/29 23:45:06;;;;;;;8.93;6.75;;;12.10;99.90;;;;;;5114538;28;20208;-76
2023/03/29 23:47:34;;;;;;;10.82;6.85;;;12.10;99.90;;;;;;5113713;28;20573;-74
2023/03/29 23:50:02;;;;;;;9.13;6.85;;;12.20;99.90;;;;;;5113839;28;20575;-79
2023/03/29 23:52:31;;;;;;;12.70;7.93;;;12.10;99.90;;;;;;5113267;28;20256;-73
2023/03/29 23:54:58;;;;;;;8.48;6.70;;;12.20;99.90;;;;;;5113430;28;20204;-77
2023/03/29 23:57:26;;;;;;;10.77;6.88;;;12.20;99.90;;;;;;5113534;28;20201;-77
2023/03/29 23:59:54;;;;;;;8.65;6.43;;;12.20;99.90;;;;;;5113760;28;20204;-78
